KLAXMHTG

Guest
Details From KLAX - Los Angeles Intl
To MHTG - Tegucigalpa Toncontin Intl
Flight Number -
Tags Generated
Created
Modified
Stats Distance 2,074 nm / 3,841 km
Max Altitude 0 ft / 0 m
Waypoints 4
Social Downloads 4
Likes 0
Share VATSIM

Download

Looking for another format? Having issues loading an existing format? Contact us
Advertisement - Login to hide

Notes

Generated

Route

KLAX MISEX TNT MHTG

ID Type Via Altitude Latitude Longitude Leg Dist Tot Dist Heading (true) Name
O KLAX APT - 0 ft / 0 m 33.94914˚ -118.43120˚ - 0 nm - -
MISEX FIX - 0 ft / 0 m 27.98583˚ -106.75556˚ 699 nm 699 nm 118° / 124° -
TNT NDB - 0 ft / 0 m 14.06091˚ -87.22047˚ 1374 nm 2073 nm 123° / 131° TONCONTIN NDB
O MHTG APT - 0 ft / 0 m 14.05292˚ -87.22000˚ 0 nm 2073 nm 177° / 177° -

Altitude Profile

Advertisement - Login to hide

Weather


0- 5 10 15 20 25 30 35+ Temperature / ° C

Clouds and Precipitation
Forecast for 2018-05-20 12:00 UTC. Updated 3 hours ago

Ground ~20,000 ft ~40,000 ft Winds

KLAX

Details ICAO KLAX (LAX)
Name Los Angeles Intl
Region United States
Timezone America/Los_Angeles (UTC-7.0)
Stats Elevation 126 ft / 38 m (AMSL)
Location 33.943130° -118.408917°
Runways 4
Magnetic Variation 11.969° E

METAR

KLAX 201353Z 23004KT 10SM BKN016 OVC028 16/12 A2993 RMK AO2 SLP134 T01610122

Decode

TAF

KLAX 201315Z 2013/2118 24006KT P6SM BKN015 OVC025 FM201700 26010KT P6SM BKN025 FM210000 27012KT P6SM SCT025 FM210300 26007KT P6SM OVC025 FM211000 VRB03KT P6SM OVC025 FM211600 24007KT P6SM BKN025 OVC035

Decode

Departure Runways

ID Width Length Bearing (true) Bearing (mag) Surface Threshold Offset Overrun Length
06L 151 ft / 46 m 8,907 ft / 2,715 m 82.98° 71.01° Concrete 0 ft / 0 m 0 ft / 0 m
06R 151 ft / 46 m 10,266 ft / 3,129 m 82.95° 70.98° Concrete 331 ft / 101 m 0 ft / 0 m
07L 151 ft / 46 m 12,069 ft / 3,679 m 82.96° 70.99° Concrete 0 ft / 0 m 0 ft / 0 m
07R 200 ft / 61 m 11,081 ft / 3,377 m 82.96° 70.99° Concrete 0 ft / 0 m 397 ft / 121 m
24L 151 ft / 46 m 10,266 ft / 3,129 m 262.97° 251.00° Concrete 0 ft / 0 m 174 ft / 53 m
24R 151 ft / 46 m 8,907 ft / 2,715 m 263.00° 251.03° Concrete 0 ft / 0 m 305 ft / 93 m
25L 200 ft / 61 m 11,081 ft / 3,377 m 262.98° 251.01° Concrete 0 ft / 0 m 1,053 ft / 321 m
25R 151 ft / 46 m 12,069 ft / 3,679 m 262.98° 251.01° Concrete 958 ft / 292 m 154 ft / 47 m

MHTG

Details ICAO MHTG (TGU)
Name Tegucigalpa Toncontin Intl
Region Honduras
Timezone America/Tegucigalpa (UTC-6.0)
Stats Elevation 3,294 ft / 1,004 m (AMSL)
Location 14.060883° -87.217197°
Runways 1
Magnetic Variation 0.720° W

METAR

MHTG 201400Z 24004KT 9999 FEW008 BKN250 21/19 Q1018 A3006 NOSIG

Decode

TAF

Not found

Destination Runways

ID Width Length Bearing (true) Bearing (mag) Surface Threshold Offset Overrun Length
02 148 ft / 45 m 6,140 ft / 1,872 m 18.87° 19.59° Asphalt 670 ft / 204 m 100 ft / 30 m
20 148 ft / 45 m 6,140 ft / 1,872 m 198.87° 199.59° Asphalt 0 ft / 0 m 200 ft / 61 m

Popular Alternatives